Weather History for Mandan, ND

Change the Weather History Date:

Sunday, May 26, 2013

  Actual Average (KBIS) Record (KBIS)
Temperature  
Mean Temperature 61 °F 59 °F  
Max Temperature 71 °F 71 °F 92 °F (1934)
Min Temperature 51 °F 46 °F 25 °F (1984)
Degree Days  
Heating Degree Days 4 7  
Month to date heating degree days 278  
Since 1 July heating degree days 8433  
Cooling Degree Days 0 1  
Month to date cooling degree days 8  
Year to date cooling degree days 9  
Growing Degree Days 11 (Base 50)    
Moisture  
Dew Point 59 °F    
Average Humidity 96    
Maximum Humidity 100    
Minimum Humidity 73    
Precipitation  
Precipitation 0.05 in 0.09 in 1.18 in (1899)
Month to date precipitation 1.95  
Year to date precipitation 5.02  
Snow  
Snow 0.00 in 0.00 in 4.00 in (1932)
Month to date snowfall 0.4  
Since 1 July snowfall 51.2  
Snow Depth -    
Sea Level Pressure  
Sea Level Pressure 29.96 in    
Wind  
Wind Speed 13 mph (ESE)    
Max Wind Speed 31 mph    
Max Gust Speed 47 mph    
Visibility 9 miles    
Events Rain    
T = Trace of Precipitation, MM = Missing Value Source: NWS Daily Summary

Daily Weather History Graph

Daily Weather History Graph

Search for Another Location

Airport:

Trip Planner

Search our weather history database for the weather conditions in past years. The results will help you decide how hot, cold, wet, or windy it might be!

Date:

Astronomy

May. 26, 2013 Rise Set
Actual Time 5:57 AM CDT 9:24 PM CDT
Civil Twilight 5:19 AM CDT 10:02 PM CDT
Nautical Twilight 4:30 AM CDT 10:51 PM CDT
Astronomical Twilight 3:26 AM CDT 11:57 PM CDT
Moon 11:11 PM CDT (5/26) 7:29 AM CDT (5/26)
Length of Visible Light 16h 42m
Length of Day
15h 27m
Waning Gibbous, 96% of the Moon is Illuminated
May 26
Waning Gibbous
May 31
Last Quarter
Jun 8
New
Jun 16
First Quarter
Jun 23
Full

Hourly Weather History & Observations

Time (CDT) Temp. Dew Point Humidity Pressure Visibility Wind Dir Wind Speed Gust Speed Precip Events Conditions
12:15 AM 57.2 °F 57.2 °F 100% 29.99 in 8.0 mi ESE 10.4 mph - N/A   Mostly Cloudy
12:35 AM 57.2 °F 57.2 °F 100% 30.01 in 9.0 mi SE 23.0 mph 31.1 mph N/A   Mostly Cloudy
12:55 AM 55.4 °F 55.4 °F 100% 30.00 in 8.0 mi ESE 8.1 mph 25.3 mph N/A   Overcast
1:15 AM 55.4 °F 55.4 °F 100% 30.02 in 10.0 mi SE 10.4 mph - N/A   Mostly Cloudy
1:35 AM 55.4 °F 55.4 °F 100% 29.97 in 10.0 mi SE 15.0 mph - N/A   Mostly Cloudy
1:55 AM 57.2 °F 57.2 °F 100% 29.86 in 10.0 mi SE 29.9 mph 47.2 mph N/A   Mostly Cloudy
2:15 AM 59.0 °F 59.0 °F 100% 29.89 in 10.0 mi South 19.6 mph 29.9 mph N/A   Mostly Cloudy
2:35 AM 59.0 °F 59.0 °F 100% 29.89 in 10.0 mi SSE 24.2 mph 34.5 mph N/A   Scattered Clouds
2:55 AM 59.0 °F 59.0 °F 100% 29.89 in 10.0 mi South 18.4 mph 25.3 mph N/A   Scattered Clouds
3:15 AM 59.0 °F 59.0 °F 100% 29.86 in 10.0 mi SSE 21.9 mph 28.8 mph N/A   Mostly Cloudy
3:35 AM 57.2 °F 57.2 °F 100% 29.83 in 10.0 mi SSE 31.1 mph 40.3 mph N/A   Overcast
3:55 AM 55.4 °F 55.4 °F 100% 29.84 in 10.0 mi SE 19.6 mph 34.5 mph N/A   Mostly Cloudy
4:15 AM 55.4 °F 55.4 °F 100% 29.84 in 10.0 mi ESE 20.7 mph 27.6 mph N/A   Mostly Cloudy
4:35 AM 57.2 °F 57.2 °F 100% 29.88 in 10.0 mi NE 3.5 mph 17.3 mph N/A Rain Light Rain
4:55 AM 55.4 °F 55.4 °F 100% 29.93 in 10.0 mi NNE 9.2 mph 16.1 mph N/A Rain Light Rain
5:15 AM 55.4 °F 55.4 °F 100% 29.98 in 9.0 mi NNE 6.9 mph - N/A Rain Light Rain
5:35 AM 53.6 °F 53.6 °F 100% 30.00 in 6.0 mi ENE 9.2 mph - 0.03 in Rain Light Rain
5:55 AM 53.6 °F 53.6 °F 100% 30.02 in 8.0 mi East 9.2 mph - 0.03 in Rain Light Rain
6:15 AM 53.6 °F 53.6 °F 100% 30.02 in 8.0 mi East 10.4 mph - N/A Rain Light Rain
6:35 AM 53.6 °F 53.6 °F 100% 30.01 in 8.0 mi East 10.4 mph - N/A Rain Light Rain
6:55 AM 53.6 °F 53.6 °F 100% 30.01 in 3.0 mi East 9.2 mph - 0.01 in Rain Light Rain
7:15 AM 53.6 °F 53.6 °F 100% 30.00 in 5.0 mi East 9.2 mph - N/A Rain Light Rain
7:35 AM 51.8 °F 51.8 °F 100% 29.98 in 4.0 mi East 12.7 mph - 0.01 in Rain Light Rain
7:55 AM 51.8 °F 51.8 °F 100% 29.93 in 5.0 mi ESE 20.7 mph 24.2 mph 0.01 in   Scattered Clouds
8:15 AM 51.8 °F 51.8 °F 100% 29.95 in 5.0 mi East 13.8 mph - N/A   Mostly Cloudy
8:35 AM 51.8 °F 51.8 °F 100% 29.93 in 8.0 mi East 15.0 mph 19.6 mph N/A   Scattered Clouds
8:55 AM 51.8 °F 51.8 °F 100% 29.93 in 7.0 mi ESE 13.8 mph - N/A   Mostly Cloudy
9:15 AM 53.6 °F 53.6 °F 100% 29.94 in 8.0 mi ESE 10.4 mph - N/A   Mostly Cloudy
9:35 AM 55.4 °F 55.4 °F 100% 29.93 in 10.0 mi East 12.7 mph - N/A   Scattered Clouds
9:55 AM 55.4 °F 55.4 °F 100% 29.94 in 10.0 mi East 9.2 mph - N/A   Scattered Clouds
10:15 AM 57.2 °F 57.2 °F 100% 29.96 in 10.0 mi ESE 11.5 mph - N/A   Mostly Cloudy
10:35 AM 57.2 °F 57.2 °F 100% 29.98 in 10.0 mi SE 9.2 mph - N/A   Mostly Cloudy
10:55 AM 57.2 °F 57.2 °F 100% 29.99 in 10.0 mi East 6.9 mph - N/A   Overcast
11:15 AM 57.2 °F 57.2 °F 100% 29.99 in 10.0 mi East 6.9 mph - N/A   Overcast
11:35 AM 59.0 °F 59.0 °F 100% 30.00 in 10.0 mi ENE 4.6 mph - N/A   Overcast
12:15 PM 62.6 °F 62.6 °F 100% 30.00 in 10.0 mi North 9.2 mph - N/A   Overcast
12:35 PM 62.6 °F 62.6 °F 100% 30.00 in 10.0 mi NNE 6.9 mph - N/A   Mostly Cloudy
12:55 PM 62.6 °F 62.6 °F 100% 29.99 in 10.0 mi North 4.6 mph - N/A   Scattered Clouds
1:15 PM 64.4 °F 62.6 °F 94% 30.00 in 10.0 mi ENE 4.6 mph - N/A   Partly Cloudy
1:35 PM 66.2 °F 64.4 °F 94% 30.00 in 10.0 mi NE 4.6 mph - N/A   Partly Cloudy
1:55 PM 64.4 °F 62.6 °F 94% 29.99 in 10.0 mi East 5.8 mph - N/A   Mostly Cloudy
2:15 PM 66.2 °F 62.6 °F 88% 29.99 in 10.0 mi East 5.8 mph - N/A   Scattered Clouds
2:35 PM 68.0 °F 62.6 °F 83% 29.98 in 10.0 mi NE 4.6 mph - N/A   Mostly Cloudy
2:55 PM 68.0 °F 62.6 °F 83% 29.98 in 10.0 mi SE 5.8 mph - N/A   Mostly Cloudy
3:15 PM 68.0 °F 62.6 °F 83% 29.98 in 10.0 mi ESE 10.4 mph - N/A   Mostly Cloudy
3:35 PM 69.8 °F 62.6 °F 78% 29.98 in 10.0 mi East 8.1 mph - N/A   Scattered Clouds
3:55 PM 71.6 °F 62.6 °F 73% 29.98 in 10.0 mi ESE 10.4 mph - N/A   Scattered Clouds
4:15 PM 69.8 °F 62.6 °F 78% 29.97 in 10.0 mi SE 6.9 mph - N/A   Scattered Clouds
4:35 PM 69.8 °F 64.4 °F 83% 29.97 in 10.0 mi East 12.7 mph - N/A   Mostly Cloudy
4:55 PM 71.6 °F 64.4 °F 78% 29.97 in 10.0 mi ESE 10.4 mph - N/A   Scattered Clouds
5:15 PM 68.0 °F 64.4 °F 88% 29.97 in 10.0 mi ESE 19.6 mph - N/A   Mostly Cloudy
5:35 PM 66.2 °F 64.4 °F 94% 29.97 in 10.0 mi ESE 17.3 mph 20.7 mph N/A   Overcast
5:55 PM 66.2 °F 64.4 °F 94% 29.97 in 10.0 mi ESE 16.1 mph - N/A   Overcast
6:15 PM 64.4 °F 64.4 °F 100% 29.98 in 10.0 mi ESE 12.7 mph 18.4 mph N/A   Overcast
6:35 PM 66.2 °F 64.4 °F 94% 29.97 in 10.0 mi East 11.5 mph - N/A   Overcast
6:55 PM 66.2 °F 64.4 °F 94% 29.96 in 10.0 mi ESE 12.7 mph - N/A   Overcast
7:15 PM 66.2 °F 64.4 °F 94% 29.96 in 10.0 mi ESE 13.8 mph 17.3 mph N/A   Overcast
7:35 PM 66.2 °F 62.6 °F 88% 29.96 in 10.0 mi ESE 13.8 mph - N/A   Partly Cloudy
7:55 PM 66.2 °F 62.6 °F 88% 29.96 in 10.0 mi ESE 12.7 mph - N/A   Clear
8:15 PM 66.2 °F 62.6 °F 88% 29.96 in 10.0 mi SE 13.8 mph - N/A   Clear
8:35 PM 64.4 °F 62.6 °F 94% 29.94 in 10.0 mi SE 10.4 mph - N/A   Mostly Cloudy
8:55 PM 62.6 °F 62.6 °F 100% 29.93 in 10.0 mi ESE 10.4 mph - N/A   Partly Cloudy
9:15 PM 62.6 °F 62.6 °F 100% 29.94 in 10.0 mi ESE 11.5 mph - N/A   Mostly Cloudy
9:35 PM 62.6 °F 62.6 °F 100% 29.94 in 10.0 mi ESE 10.4 mph - N/A   Overcast
9:55 PM 62.6 °F 62.6 °F 100% 29.94 in 10.0 mi ESE 12.7 mph 18.4 mph N/A   Overcast
10:15 PM 60.8 °F 60.8 °F 100% 29.95 in 10.0 mi SE 12.7 mph - N/A   Partly Cloudy
10:35 PM 59.0 °F 59.0 °F 100% 29.95 in 10.0 mi SE 11.5 mph 16.1 mph N/A   Clear
10:55 PM 59.0 °F 59.0 °F 100% 29.95 in 10.0 mi ESE 11.5 mph - N/A   Clear
11:15 PM 59.0 °F 59.0 °F 100% 29.94 in 10.0 mi East 9.2 mph - N/A   Clear
11:35 PM 57.2 °F 57.2 °F 100% 29.92 in 10.0 mi East 10.4 mph - N/A   Clear
11:55 PM 57.2 °F 57.2 °F 100% 29.91 in 8.0 mi East 12.7 mph - N/A   Clear